sensor_id;sensor_type;location;lat;lon;timestamp;temperature;humidity
80132;SHT30;69442;51.442;10.564;2023-10-13T00:00:33;15.79;74.28
80132;SHT30;69442;51.442;10.564;2023-10-13T00:03:02;15.76;74.15
80132;SHT30;69442;51.442;10.564;2023-10-13T00:05:31;15.76;75.42
80132;SHT30;69442;51.442;10.564;2023-10-13T00:07:58;15.72;74.24
80132;SHT30;69442;51.442;10.564;2023-10-13T00:10:30;15.72;74.52
80132;SHT30;69442;51.442;10.564;2023-10-13T00:12:57;15.72;74.40
80132;SHT30;69442;51.442;10.564;2023-10-13T00:18:11;15.73;74.19
80132;SHT30;69442;51.442;10.564;2023-10-13T00:20:41;15.68;74.33
80132;SHT30;69442;51.442;10.564;2023-10-13T00:23:14;15.69;74.40
80132;SHT30;69442;51.442;10.564;2023-10-13T00:25:40;15.66;74.27
80132;SHT30;69442;51.442;10.564;2023-10-13T00:28:15;15.66;74.33
80132;SHT30;69442;51.442;10.564;2023-10-13T00:30:49;15.66;74.24
80132;SHT30;69442;51.442;10.564;2023-10-13T00:33:17;15.66;74.29
80132;SHT30;69442;51.442;10.564;2023-10-13T00:35:45;15.65;74.40
80132;SHT30;69442;51.442;10.564;2023-10-13T00:38:12;15.65;74.17
80132;SHT30;69442;51.442;10.564;2023-10-13T00:40:39;15.65;74.24
80132;SHT30;69442;51.442;10.564;2023-10-13T00:43:05;15.63;74.21
80132;SHT30;69442;51.442;10.564;2023-10-13T00:46:03;15.63;75.11
80132;SHT30;69442;51.442;10.564;2023-10-13T00:48:32;15.62;75.55
80132;SHT30;69442;51.442;10.564;2023-10-13T00:51:07;15.63;74.89
80132;SHT30;69442;51.442;10.564;2023-10-13T00:53:34;15.62;75.40
80132;SHT30;69442;51.442;10.564;2023-10-13T00:56:02;15.65;75.51
80132;SHT30;69442;51.442;10.564;2023-10-13T00:58:44;15.63;74.54
80132;SHT30;69442;51.442;10.564;2023-10-13T01:01:11;15.65;74.58
80132;SHT30;69442;51.442;10.564;2023-10-13T01:03:50;15.68;74.85
80132;SHT30;69442;51.442;10.564;2023-10-13T01:06:21;15.65;74.59
80132;SHT30;69442;51.442;10.564;2023-10-13T01:09:00;15.66;75.43
80132;SHT30;69442;51.442;10.564;2023-10-13T01:11:26;15.68;74.88
80132;SHT30;69442;51.442;10.564;2023-10-13T01:13:55;15.66;75.31
80132;SHT30;69442;51.442;10.564;2023-10-13T01:16:20;15.66;75.38
80132;SHT30;69442;51.442;10.564;2023-10-13T01:18:49;15.69;74.93
80132;SHT30;69442;51.442;10.564;2023-10-13T01:21:18;15.68;74.99
80132;SHT30;69442;51.442;10.564;2023-10-13T01:23:46;15.69;74.82
80132;SHT30;69442;51.442;10.564;2023-10-13T01:26:13;15.69;75.43
80132;SHT30;69442;51.442;10.564;2023-10-13T01:28:43;15.68;75.05
80132;SHT30;69442;51.442;10.564;2023-10-13T01:31:12;15.66;75.00
80132;SHT30;69442;51.442;10.564;2023-10-13T01:33:38;15.69;75.33
80132;SHT30;69442;51.442;10.564;2023-10-13T01:36:04;15.68;75.68
80132;SHT30;69442;51.442;10.564;2023-10-13T01:38:34;15.66;75.37
80132;SHT30;69442;51.442;10.564;2023-10-13T01:41:04;15.65;75.64
80132;SHT30;69442;51.442;10.564;2023-10-13T01:43:30;15.69;77.16
80132;SHT30;69442;51.442;10.564;2023-10-13T01:45:55;15.65;77.22
80132;SHT30;69442;51.442;10.564;2023-10-13T01:48:21;15.69;76.45
80132;SHT30;69442;51.442;10.564;2023-10-13T01:50:46;15.69;76.60
80132;SHT30;69442;51.442;10.564;2023-10-13T01:53:23;15.68;77.34
80132;SHT30;69442;51.442;10.564;2023-10-13T01:55:49;15.68;75.83
80132;SHT30;69442;51.442;10.564;2023-10-13T01:58:16;15.69;76.20
80132;SHT30;69442;51.442;10.564;2023-10-13T02:00:45;15.70;76.17
80132;SHT30;69442;51.442;10.564;2023-10-13T02:03:13;15.69;76.36
80132;SHT30;69442;51.442;10.564;2023-10-13T02:05:48;15.72;75.81
80132;SHT30;69442;51.442;10.564;2023-10-13T02:08:17;15.70;75.86
80132;SHT30;69442;51.442;10.564;2023-10-13T02:10:52;15.72;75.88
80132;SHT30;69442;51.442;10.564;2023-10-13T02:13:20;15.70;75.76
80132;SHT30;69442;51.442;10.564;2023-10-13T02:15:47;15.73;76.03
80132;SHT30;69442;51.442;10.564;2023-10-13T02:18:18;15.72;76.53
80132;SHT30;69442;51.442;10.564;2023-10-13T02:21:01;15.73;76.34
80132;SHT30;69442;51.442;10.564;2023-10-13T02:23:30;15.70;76.95
80132;SHT30;69442;51.442;10.564;2023-10-13T02:25:56;15.70;76.38
80132;SHT30;69442;51.442;10.564;2023-10-13T02:29:00;15.75;76.82
80132;SHT30;69442;51.442;10.564;2023-10-13T02:31:34;15.73;76.20
80132;SHT30;69442;51.442;10.564;2023-10-13T02:33:59;15.75;76.22
80132;SHT30;69442;51.442;10.564;2023-10-13T02:36:26;15.75;76.08
80132;SHT30;69442;51.442;10.564;2023-10-13T02:39:04;15.72;76.64
80132;SHT30;69442;51.442;10.564;2023-10-13T02:41:34;15.76;76.30
80132;SHT30;69442;51.442;10.564;2023-10-13T02:44:03;15.76;76.19
80132;SHT30;69442;51.442;10.564;2023-10-13T02:46:33;15.78;76.27
80132;SHT30;69442;51.442;10.564;2023-10-13T02:49:04;15.75;76.90
80132;SHT30;69442;51.442;10.564;2023-10-13T02:51:39;15.78;76.72
80132;SHT30;69442;51.442;10.564;2023-10-13T02:54:09;15.79;77.25
80132;SHT30;69442;51.442;10.564;2023-10-13T02:56:43;15.78;76.92
80132;SHT30;69442;51.442;10.564;2023-10-13T02:59:15;15.81;77.75
80132;SHT30;69442;51.442;10.564;2023-10-13T03:01:41;15.82;76.99
80132;SHT30;69442;51.442;10.564;2023-10-13T03:04:06;15.83;77.01
80132;SHT30;69442;51.442;10.564;2023-10-13T03:06:34;15.83;77.07
80132;SHT30;69442;51.442;10.564;2023-10-13T03:09:04;15.82;76.88
80132;SHT30;69442;51.442;10.564;2023-10-13T03:11:48;15.85;77.42
80132;SHT30;69442;51.442;10.564;2023-10-13T03:14:23;15.85;77.49
80132;SHT30;69442;51.442;10.564;2023-10-13T03:17:02;15.85;77.81
80132;SHT30;69442;51.442;10.564;2023-10-13T03:19:31;15.86;77.19
80132;SHT30;69442;51.442;10.564;2023-10-13T03:22:03;15.87;77.04
80132;SHT30;69442;51.442;10.564;2023-10-13T03:24:37;15.87;76.93
80132;SHT30;69442;51.442;10.564;2023-10-13T03:27:10;15.85;76.97
80132;SHT30;69442;51.442;10.564;2023-10-13T03:29:37;15.89;77.11
80132;SHT30;69442;51.442;10.564;2023-10-13T03:32:12;15.89;77.63
80132;SHT30;69442;51.442;10.564;2023-10-13T03:34:42;15.92;76.96
80132;SHT30;69442;51.442;10.564;2023-10-13T03:37:25;15.90;77.58
80132;SHT30;69442;51.442;10.564;2023-10-13T03:40:12;15.89;77.80
80132;SHT30;69442;51.442;10.564;2023-10-13T03:42:51;15.89;77.72
80132;SHT30;69442;51.442;10.564;2023-10-13T03:48:08;15.90;77.67
80132;SHT30;69442;51.442;10.564;2023-10-13T03:50:38;15.89;78.05
80132;SHT30;69442;51.442;10.564;2023-10-13T03:53:12;15.89;77.41
80132;SHT30;69442;51.442;10.564;2023-10-13T03:55:38;15.89;77.84
80132;SHT30;69442;51.442;10.564;2023-10-13T03:58:04;15.89;77.46
80132;SHT30;69442;51.442;10.564;2023-10-13T04:00:30;15.90;77.85
80132;SHT30;69442;51.442;10.564;2023-10-13T04:02:57;15.90;77.54
80132;SHT30;69442;51.442;10.564;2023-10-13T04:05:32;15.90;77.91
80132;SHT30;69442;51.442;10.564;2023-10-13T04:08:10;15.90;77.58
80132;SHT30;69442;51.442;10.564;2023-10-13T04:10:55;15.92;77.88
80132;SHT30;69442;51.442;10.564;2023-10-13T04:13:21;15.90;78.23
80132;SHT30;69442;51.442;10.564;2023-10-13T04:16:07;15.93;78.30
80132;SHT30;69442;51.442;10.564;2023-10-13T04:18:52;15.90;78.14
80132;SHT30;69442;51.442;10.564;2023-10-13T04:21:21;15.94;78.78
80132;SHT30;69442;51.442;10.564;2023-10-13T04:24:09;15.96;78.10
80132;SHT30;69442;51.442;10.564;2023-10-13T04:26:44;15.96;78.12
80132;SHT30;69442;51.442;10.564;2023-10-13T04:29:44;15.96;78.03
80132;SHT30;69442;51.442;10.564;2023-10-13T04:32:22;15.96;79.35
80132;SHT30;69442;51.442;10.564;2023-10-13T04:34:55;15.94;77.90
80132;SHT30;69442;51.442;10.564;2023-10-13T04:37:24;15.97;77.92
80132;SHT30;69442;51.442;10.564;2023-10-13T04:39:58;15.97;78.52
80132;SHT30;69442;51.442;10.564;2023-10-13T04:42:35;15.99;79.15
80132;SHT30;69442;51.442;10.564;2023-10-13T04:45:22;16.00;78.65
80132;SHT30;69442;51.442;10.564;2023-10-13T04:47:59;15.99;78.22
80132;SHT30;69442;51.442;10.564;2023-10-13T04:50:58;16.02;78.30
80132;SHT30;69442;51.442;10.564;2023-10-13T04:53:43;16.03;78.31
80132;SHT30;69442;51.442;10.564;2023-10-13T04:56:27;16.06;78.24
80132;SHT30;69442;51.442;10.564;2023-10-13T04:59:11;16.06;78.36
80132;SHT30;69442;51.442;10.564;2023-10-13T05:01:54;16.06;78.48
80132;SHT30;69442;51.442;10.564;2023-10-13T05:04:23;16.07;78.58
80132;SHT30;69442;51.442;10.564;2023-10-13T05:07:04;16.07;78.60
80132;SHT30;69442;51.442;10.564;2023-10-13T05:09:49;16.10;78.78
80132;SHT30;69442;51.442;10.564;2023-10-13T05:12:33;16.09;78.36
80132;SHT30;69442;51.442;10.564;2023-10-13T05:15:18;16.10;78.40
80132;SHT30;69442;51.442;10.564;2023-10-13T05:18:03;16.10;78.70
80132;SHT30;69442;51.442;10.564;2023-10-13T05:20:47;16.10;78.55
80132;SHT30;69442;51.442;10.564;2023-10-13T05:23:30;16.14;78.94
80132;SHT30;69442;51.442;10.564;2023-10-13T05:26:14;16.14;78.56
80132;SHT30;69442;51.442;10.564;2023-10-13T05:28:58;16.13;78.61
80132;SHT30;69442;51.442;10.564;2023-10-13T05:31:42;16.16;78.97
80132;SHT30;69442;51.442;10.564;2023-10-13T05:34:37;16.16;78.17
80132;SHT30;69442;51.442;10.564;2023-10-13T05:37:20;16.17;79.18
80132;SHT30;69442;51.442;10.564;2023-10-13T05:40:05;16.18;78.86
80132;SHT30;69442;51.442;10.564;2023-10-13T05:43:06;16.17;79.72
80132;SHT30;69442;51.442;10.564;2023-10-13T05:45:51;16.16;79.71
80132;SHT30;69442;51.442;10.564;2023-10-13T05:48:34;16.17;78.77
80132;SHT30;69442;51.442;10.564;2023-10-13T05:51:20;16.18;78.39
80132;SHT30;69442;51.442;10.564;2023-10-13T05:54:04;16.20;78.45
80132;SHT30;69442;51.442;10.564;2023-10-13T05:56:42;16.20;78.41
80132;SHT30;69442;51.442;10.564;2023-10-13T05:59:27;16.20;78.21
80132;SHT30;69442;51.442;10.564;2023-10-13T06:02:12;16.24;78.22
80132;SHT30;69442;51.442;10.564;2023-10-13T06:05:12;16.24;78.03
80132;SHT30;69442;51.442;10.564;2023-10-13T06:07:57;16.24;78.12
80132;SHT30;69442;51.442;10.564;2023-10-13T06:10:41;16.25;77.93
80132;SHT30;69442;51.442;10.564;2023-10-13T06:13:26;16.30;77.89
80132;SHT30;69442;51.442;10.564;2023-10-13T06:16:16;16.28;78.30
80132;SHT30;69442;51.442;10.564;2023-10-13T06:19:01;16.32;78.39
80132;SHT30;69442;51.442;10.564;2023-10-13T06:21:45;16.32;78.18
80132;SHT30;69442;51.442;10.564;2023-10-13T06:24:29;16.34;77.88
80132;SHT30;69442;51.442;10.564;2023-10-13T06:27:14;16.32;77.81
80132;SHT30;69442;51.442;10.564;2023-10-13T06:29:58;16.35;77.89
80132;SHT30;69442;51.442;10.564;2023-10-13T06:32:24;16.37;78.16
80132;SHT30;69442;51.442;10.564;2023-10-13T06:34:55;16.38;77.87
80132;SHT30;69442;51.442;10.564;2023-10-13T06:37:27;16.40;77.81
80132;SHT30;69442;51.442;10.564;2023-10-13T06:39:57;16.41;77.98
80132;SHT30;69442;51.442;10.564;2023-10-13T06:42:25;16.42;78.22
80132;SHT30;69442;51.442;10.564;2023-10-13T06:44:53;16.41;78.12
80132;SHT30;69442;51.442;10.564;2023-10-13T06:47:20;16.47;78.03
80132;SHT30;69442;51.442;10.564;2023-10-13T06:49:46;16.48;78.62
80132;SHT30;69442;51.442;10.564;2023-10-13T06:52:14;16.45;77.81
80132;SHT30;69442;51.442;10.564;2023-10-13T06:54:41;16.48;77.89
80132;SHT30;69442;51.442;10.564;2023-10-13T06:57:08;16.51;78.08
80132;SHT30;69442;51.442;10.564;2023-10-13T06:59:39;16.52;77.73
80132;SHT30;69442;51.442;10.564;2023-10-13T07:02:06;16.51;77.79
80132;SHT30;69442;51.442;10.564;2023-10-13T07:04:35;16.55;77.60
80132;SHT30;69442;51.442;10.564;2023-10-13T07:07:05;16.56;77.33
80132;SHT30;69442;51.442;10.564;2023-10-13T07:09:31;16.55;78.40
80132;SHT30;69442;51.442;10.564;2023-10-13T07:12:00;16.55;78.02
80132;SHT30;69442;51.442;10.564;2023-10-13T07:14:27;16.58;78.74
80132;SHT30;69442;51.442;10.564;2023-10-13T07:16:57;16.58;77.65
80132;SHT30;69442;51.442;10.564;2023-10-13T07:19:26;16.56;77.51
80132;SHT30;69442;51.442;10.564;2023-10-13T07:21:56;16.61;78.72
80132;SHT30;69442;51.442;10.564;2023-10-13T07:24:28;16.61;77.78
80132;SHT30;69442;51.442;10.564;2023-10-13T07:27:00;16.61;77.44
80132;SHT30;69442;51.442;10.564;2023-10-13T07:29:31;16.59;77.18
80132;SHT30;69442;51.442;10.564;2023-10-13T07:32:00;16.65;77.15
80132;SHT30;69442;51.442;10.564;2023-10-13T07:34:29;16.66;77.51
80132;SHT30;69442;51.442;10.564;2023-10-13T07:36:58;16.69;79.01
80132;SHT30;69442;51.442;10.564;2023-10-13T07:39:30;16.71;77.50
80132;SHT30;69442;51.442;10.564;2023-10-13T07:42:00;16.72;78.77
80132;SHT30;69442;51.442;10.564;2023-10-13T07:44:40;16.71;79.88
80132;SHT30;69442;51.442;10.564;2023-10-13T07:47:11;16.75;78.31
80132;SHT30;69442;51.442;10.564;2023-10-13T07:49:37;16.76;78.02
80132;SHT30;69442;51.442;10.564;2023-10-13T07:52:08;16.73;78.00
80132;SHT30;69442;51.442;10.564;2023-10-13T07:54:50;16.73;77.52
80132;SHT30;69442;51.442;10.564;2023-10-13T07:57:35;16.77;78.39
80132;SHT30;69442;51.442;10.564;2023-10-13T08:00:01;16.79;77.40
80132;SHT30;69442;51.442;10.564;2023-10-13T08:02:36;16.80;78.18
80132;SHT30;69442;51.442;10.564;2023-10-13T08:05:15;16.79;77.73
80132;SHT30;69442;51.442;10.564;2023-10-13T08:08:04;16.83;77.72
80132;SHT30;69442;51.442;10.564;2023-10-13T08:10:39;16.84;77.52
80132;SHT30;69442;51.442;10.564;2023-10-13T08:16:29;16.84;78.18
80132;SHT30;69442;51.442;10.564;2023-10-13T08:19:22;16.86;78.52
80132;SHT30;69442;51.442;10.564;2023-10-13T08:22:08;16.89;79.03
80132;SHT30;69442;51.442;10.564;2023-10-13T08:24:47;16.89;78.23
80132;SHT30;69442;51.442;10.564;2023-10-13T08:27:14;16.92;78.53
80132;SHT30;69442;51.442;10.564;2023-10-13T08:29:43;16.92;79.69
80132;SHT30;69442;51.442;10.564;2023-10-13T08:32:21;16.93;79.15
80132;SHT30;69442;51.442;10.564;2023-10-13T08:34:59;16.96;79.07
80132;SHT30;69442;51.442;10.564;2023-10-13T08:37:34;16.96;77.90
80132;SHT30;69442;51.442;10.564;2023-10-13T08:40:13;16.97;79.18
80132;SHT30;69442;51.442;10.564;2023-10-13T08:42:57;16.99;80.72
80132;SHT30;69442;51.442;10.564;2023-10-13T08:45:30;17.02;80.63
80132;SHT30;69442;51.442;10.564;2023-10-13T08:47:57;17.02;79.13
80132;SHT30;69442;51.442;10.564;2023-10-13T08:50:45;17.02;78.21
80132;SHT30;69442;51.442;10.564;2023-10-13T08:53:27;17.04;79.61
80132;SHT30;69442;51.442;10.564;2023-10-13T08:58:36;17.06;79.49
80132;SHT30;69442;51.442;10.564;2023-10-13T09:01:30;17.07;79.28
80132;SHT30;69442;51.442;10.564;2023-10-13T09:04:16;17.10;78.45
80132;SHT30;69442;51.442;10.564;2023-10-13T09:06:58;17.10;80.04
80132;SHT30;69442;51.442;10.564;2023-10-13T09:09:33;17.09;77.97
80132;SHT30;69442;51.442;10.564;2023-10-13T09:12:14;17.11;79.18
80132;SHT30;69442;51.442;10.564;2023-10-13T09:14:42;17.16;79.32
80132;SHT30;69442;51.442;10.564;2023-10-13T09:17:11;17.17;79.01
80132;SHT30;69442;51.442;10.564;2023-10-13T09:19:55;17.14;79.09
80132;SHT30;69442;51.442;10.564;2023-10-13T09:22:28;17.16;80.91
80132;SHT30;69442;51.442;10.564;2023-10-13T09:25:04;17.18;81.44
80132;SHT30;69442;51.442;10.564;2023-10-13T09:27:39;17.20;81.75
80132;SHT30;69442;51.442;10.564;2023-10-13T09:30:05;17.23;80.47
80132;SHT30;69442;51.442;10.564;2023-10-13T09:32:58;17.23;78.88
80132;SHT30;69442;51.442;10.564;2023-10-13T09:35:27;17.26;80.56
80132;SHT30;69442;51.442;10.564;2023-10-13T09:37:53;17.31;79.95
80132;SHT30;69442;51.442;10.564;2023-10-13T09:40:22;17.34;80.40
80132;SHT30;69442;51.442;10.564;2023-10-13T09:42:52;17.37;79.49
80132;SHT30;69442;51.442;10.564;2023-10-13T09:45:24;17.45;80.71
80132;SHT30;69442;51.442;10.564;2023-10-13T09:47:55;17.49;79.27
80132;SHT30;69442;51.442;10.564;2023-10-13T09:50:37;17.58;81.11
80132;SHT30;69442;51.442;10.564;2023-10-13T09:53:06;17.62;79.39
80132;SHT30;69442;51.442;10.564;2023-10-13T09:55:40;17.69;81.63
80132;SHT30;69442;51.442;10.564;2023-10-13T09:58:10;17.72;80.05
80132;SHT30;69442;51.442;10.564;2023-10-13T10:00:47;17.76;80.09
80132;SHT30;69442;51.442;10.564;2023-10-13T10:03:15;17.82;80.15
80132;SHT30;69442;51.442;10.564;2023-10-13T10:06:05;17.90;82.53
80132;SHT30;69442;51.442;10.564;2023-10-13T10:08:41;17.90;79.38
80132;SHT30;69442;51.442;10.564;2023-10-13T10:14:07;18.01;78.01
80132;SHT30;69442;51.442;10.564;2023-10-13T10:17:05;18.10;79.88
80132;SHT30;69442;51.442;10.564;2023-10-13T10:19:52;18.13;80.47
80132;SHT30;69442;51.442;10.564;2023-10-13T10:22:26;18.23;80.53
80132;SHT30;69442;51.442;10.564;2023-10-13T10:25:05;18.24;79.45
80132;SHT30;69442;51.442;10.564;2023-10-13T10:27:57;18.31;79.62
80132;SHT30;69442;51.442;10.564;2023-10-13T10:30:29;18.34;77.80
80132;SHT30;69442;51.442;10.564;2023-10-13T10:32:58;18.45;78.04
80132;SHT30;69442;51.442;10.564;2023-10-13T10:35:33;18.48;79.00
80132;SHT30;69442;51.442;10.564;2023-10-13T10:38:16;18.53;79.38
80132;SHT30;69442;51.442;10.564;2023-10-13T10:41:03;18.60;78.91
80132;SHT30;69442;51.442;10.564;2023-10-13T10:43:38;18.69;79.18
80132;SHT30;69442;51.442;10.564;2023-10-13T10:46:18;18.73;78.77
80132;SHT30;69442;51.442;10.564;2023-10-13T10:48:50;18.79;78.14
80132;SHT30;69442;51.442;10.564;2023-10-13T10:51:22;18.85;78.22
80132;SHT30;69442;51.442;10.564;2023-10-13T10:53:48;18.89;77.82
80132;SHT30;69442;51.442;10.564;2023-10-13T10:56:18;19.00;79.55
80132;SHT30;69442;51.442;10.564;2023-10-13T10:59:06;19.07;79.05
80132;SHT30;69442;51.442;10.564;2023-10-13T11:01:44;19.13;77.12
80132;SHT30;69442;51.442;10.564;2023-10-13T11:04:13;19.25;78.34
80132;SHT30;69442;51.442;10.564;2023-10-13T11:07:06;19.34;78.07
80132;SHT30;69442;51.442;10.564;2023-10-13T11:09:34;19.41;77.29
80132;SHT30;69442;51.442;10.564;2023-10-13T11:14:31;19.54;77.16
80132;SHT30;69442;51.442;10.564;2023-10-13T11:16:57;19.61;76.86
80132;SHT30;69442;51.442;10.564;2023-10-13T11:19:37;19.65;76.88
80132;SHT30;69442;51.442;10.564;2023-10-13T11:22:12;19.69;76.54
80132;SHT30;69442;51.442;10.564;2023-10-13T11:24:55;19.73;76.40
80132;SHT30;69442;51.442;10.564;2023-10-13T11:27:30;19.77;76.34
80132;SHT30;69442;51.442;10.564;2023-10-13T11:30:12;19.80;75.84
80132;SHT30;69442;51.442;10.564;2023-10-13T11:32:41;19.82;75.79
80132;SHT30;69442;51.442;10.564;2023-10-13T11:35:10;19.86;75.59
80132;SHT30;69442;51.442;10.564;2023-10-13T11:37:53;19.86;75.51
80132;SHT30;69442;51.442;10.564;2023-10-13T11:40:35;19.89;75.38
80132;SHT30;69442;51.442;10.564;2023-10-13T11:43:20;19.89;75.27
80132;SHT30;69442;51.442;10.564;2023-10-13T11:45:49;19.90;75.16
80132;SHT30;69442;51.442;10.564;2023-10-13T11:48:21;19.92;75.34
80132;SHT30;69442;51.442;10.564;2023-10-13T11:51:00;19.93;75.24
80132;SHT30;69442;51.442;10.564;2023-10-13T11:53:26;19.97;74.97
80132;SHT30;69442;51.442;10.564;2023-10-13T11:55:55;19.98;74.86
80132;SHT30;69442;51.442;10.564;2023-10-13T11:58:21;20.00;75.03
80132;SHT30;69442;51.442;10.564;2023-10-13T12:00:46;20.01;74.85
80132;SHT30;69442;51.442;10.564;2023-10-13T12:03:41;20.03;74.67
80132;SHT30;69442;51.442;10.564;2023-10-13T12:06:30;20.06;74.49
80132;SHT30;69442;51.442;10.564;2023-10-13T12:09:12;20.08;74.62
80132;SHT30;69442;51.442;10.564;2023-10-13T12:11:48;20.10;74.48
80132;SHT30;69442;51.442;10.564;2023-10-13T12:14:17;20.11;74.49
80132;SHT30;69442;51.442;10.564;2023-10-13T12:16:47;20.13;74.37
80132;SHT30;69442;51.442;10.564;2023-10-13T12:19:20;20.18;74.43
80132;SHT30;69442;51.442;10.564;2023-10-13T12:21:49;20.20;74.39
80132;SHT30;69442;51.442;10.564;2023-10-13T12:24:14;20.21;74.28
80132;SHT30;69442;51.442;10.564;2023-10-13T12:26:58;20.24;74.36
80132;SHT30;69442;51.442;10.564;2023-10-13T12:29:24;20.28;74.42
80132;SHT30;69442;51.442;10.564;2023-10-13T12:31:55;20.31;74.28
80132;SHT30;69442;51.442;10.564;2023-10-13T12:34:40;20.34;74.18
80132;SHT30;69442;51.442;10.564;2023-10-13T12:37:28;20.36;74.22
80132;SHT30;69442;51.442;10.564;2023-10-13T12:40:13;20.36;74.31
80132;SHT30;69442;51.442;10.564;2023-10-13T12:42:57;20.41;74.02
80132;SHT30;69442;51.442;10.564;2023-10-13T12:45:49;20.45;74.12
80132;SHT30;69442;51.442;10.564;2023-10-13T12:48:36;20.46;74.08
80132;SHT30;69442;51.442;10.564;2023-10-13T12:51:20;20.45;74.12
80132;SHT30;69442;51.442;10.564;2023-10-13T12:53:50;20.48;74.08
80132;SHT30;69442;51.442;10.564;2023-10-13T12:56:16;20.49;73.96
80132;SHT30;69442;51.442;10.564;2023-10-13T12:58:43;20.51;73.95
80132;SHT30;69442;51.442;10.564;2023-10-13T13:01:24;20.51;73.54
80132;SHT30;69442;51.442;10.564;2023-10-13T13:03:52;20.53;73.52
80132;SHT30;69442;51.442;10.564;2023-10-13T13:06:22;20.56;73.28
80132;SHT30;69442;51.442;10.564;2023-10-13T13:08:53;20.56;73.27
80132;SHT30;69442;51.442;10.564;2023-10-13T13:11:19;20.55;73.14
80132;SHT30;69442;51.442;10.564;2023-10-13T13:13:45;20.53;73.25
80132;SHT30;69442;51.442;10.564;2023-10-13T13:16:17;20.56;73.23
80132;SHT30;69442;51.442;10.564;2023-10-13T13:18:55;20.53;72.89
80132;SHT30;69442;51.442;10.564;2023-10-13T13:21:21;20.55;73.09
80132;SHT30;69442;51.442;10.564;2023-10-13T13:23:50;20.53;72.80
80132;SHT30;69442;51.442;10.564;2023-10-13T13:26:16;20.55;73.08
80132;SHT30;69442;51.442;10.564;2023-10-13T13:28:43;20.55;73.02
80132;SHT30;69442;51.442;10.564;2023-10-13T13:31:09;20.53;72.94
80132;SHT30;69442;51.442;10.564;2023-10-13T13:33:40;20.53;72.84
80132;SHT30;69442;51.442;10.564;2023-10-13T13:36:08;20.53;72.73
80132;SHT30;69442;51.442;10.564;2023-10-13T13:38:39;20.52;72.65
80132;SHT30;69442;51.442;10.564;2023-10-13T13:41:11;20.56;72.37
80132;SHT30;69442;51.442;10.564;2023-10-13T13:43:40;20.53;72.41
80132;SHT30;69442;51.442;10.564;2023-10-13T13:46:18;20.56;72.12
80132;SHT30;69442;51.442;10.564;2023-10-13T13:48:44;20.55;70.99
80132;SHT30;69442;51.442;10.564;2023-10-13T13:51:13;20.57;71.60
80132;SHT30;69442;51.442;10.564;2023-10-13T13:53:45;20.57;71.82
80132;SHT30;69442;51.442;10.564;2023-10-13T13:56:13;20.59;71.52
80132;SHT30;69442;51.442;10.564;2023-10-13T13:58:47;20.61;70.63
80132;SHT30;69442;51.442;10.564;2023-10-13T14:01:12;20.62;71.24
80132;SHT30;69442;51.442;10.564;2023-10-13T14:03:41;20.63;71.05
80132;SHT30;69442;51.442;10.564;2023-10-13T14:08:58;20.66;70.92
80132;SHT30;69442;51.442;10.564;2023-10-13T14:12:00;20.69;71.11
80132;SHT30;69442;51.442;10.564;2023-10-13T14:14:44;20.69;71.06
80132;SHT30;69442;51.442;10.564;2023-10-13T14:17:23;20.72;70.35
80132;SHT30;69442;51.442;10.564;2023-10-13T14:19:55;20.72;69.69
80132;SHT30;69442;51.442;10.564;2023-10-13T14:22:21;20.72;69.84
80132;SHT30;69442;51.442;10.564;2023-10-13T14:24:50;20.75;70.19
80132;SHT30;69442;51.442;10.564;2023-10-13T14:27:19;20.70;70.38
80132;SHT30;69442;51.442;10.564;2023-10-13T14:29:48;20.73;69.66
80132;SHT30;69442;51.442;10.564;2023-10-13T14:32:15;20.72;69.56
80132;SHT30;69442;51.442;10.564;2023-10-13T14:34:41;20.72;69.55
80132;SHT30;69442;51.442;10.564;2023-10-13T14:37:07;20.73;69.38
80132;SHT30;69442;51.442;10.564;2023-10-13T14:39:34;20.73;69.33
80132;SHT30;69442;51.442;10.564;2023-10-13T14:42:03;20.75;69.47
80132;SHT30;69442;51.442;10.564;2023-10-13T14:44:34;20.76;69.43
80132;SHT30;69442;51.442;10.564;2023-10-13T14:47:01;20.76;69.11
80132;SHT30;69442;51.442;10.564;2023-10-13T14:49:26;20.73;69.23
80132;SHT30;69442;51.442;10.564;2023-10-13T14:51:52;20.75;68.86
80132;SHT30;69442;51.442;10.564;2023-10-13T14:54:20;20.75;69.12
80132;SHT30;69442;51.442;10.564;2023-10-13T14:57:01;20.75;69.30
80132;SHT30;69442;51.442;10.564;2023-10-13T14:59:26;20.75;68.93
80132;SHT30;69442;51.442;10.564;2023-10-13T15:01:53;20.73;69.16
80132;SHT30;69442;51.442;10.564;2023-10-13T15:04:18;20.75;69.98
80132;SHT30;69442;51.442;10.564;2023-10-13T15:06:49;20.75;69.49
80132;SHT30;69442;51.442;10.564;2023-10-13T15:09:15;20.73;69.07
80132;SHT30;69442;51.442;10.564;2023-10-13T15:11:49;20.75;69.24
80132;SHT30;69442;51.442;10.564;2023-10-13T15:14:15;20.73;68.27
80132;SHT30;69442;51.442;10.564;2023-10-13T15:16:40;20.73;68.56
80132;SHT30;69442;51.442;10.564;2023-10-13T15:19:08;20.73;68.81
80132;SHT30;69442;51.442;10.564;2023-10-13T15:21:34;20.75;69.29
80132;SHT30;69442;51.442;10.564;2023-10-13T15:24:01;20.73;69.50
80132;SHT30;69442;51.442;10.564;2023-10-13T15:26:41;20.72;68.60
80132;SHT30;69442;51.442;10.564;2023-10-13T15:29:10;20.72;68.56
80132;SHT30;69442;51.442;10.564;2023-10-13T15:31:38;20.73;69.40
80132;SHT30;69442;51.442;10.564;2023-10-13T15:34:11;20.68;69.25
80132;SHT30;69442;51.442;10.564;2023-10-13T15:36:43;20.68;69.35
80132;SHT30;69442;51.442;10.564;2023-10-13T15:39:10;20.68;68.45
80132;SHT30;69442;51.442;10.564;2023-10-13T15:41:37;20.66;68.78
80132;SHT30;69442;51.442;10.564;2023-10-13T15:44:06;20.63;69.14
80132;SHT30;69442;51.442;10.564;2023-10-13T15:46:36;20.63;69.16
80132;SHT30;69442;51.442;10.564;2023-10-13T15:49:02;20.61;68.99
80132;SHT30;69442;51.442;10.564;2023-10-13T15:51:32;20.59;69.45
80132;SHT30;69442;51.442;10.564;2023-10-13T15:53:58;20.56;69.13
80132;SHT30;69442;51.442;10.564;2023-10-13T15:56:25;20.52;69.21
80132;SHT30;69442;51.442;10.564;2023-10-13T15:58:50;20.52;68.95
80132;SHT30;69442;51.442;10.564;2023-10-13T16:01:16;20.52;69.07
80132;SHT30;69442;51.442;10.564;2023-10-13T16:03:43;20.46;68.97
80132;SHT30;69442;51.442;10.564;2023-10-13T16:06:12;20.45;69.89
80132;SHT30;69442;51.442;10.564;2023-10-13T16:08:39;20.44;69.62
80132;SHT30;69442;51.442;10.564;2023-10-13T16:11:11;20.41;69.69
80132;SHT30;69442;51.442;10.564;2023-10-13T16:13:47;20.38;69.04
80132;SHT30;69442;51.442;10.564;2023-10-13T16:16:23;20.35;69.74